createdAt,value
2019-05-01T00:01:08.588Z,24.43
2019-05-01T00:03:40.598Z,23.15
2019-05-01T00:06:08.668Z,25.02
2019-05-01T00:08:36.718Z,22.80
2019-05-01T00:11:05.548Z,23.62
2019-05-01T00:13:33.604Z,24.70
2019-05-01T00:16:01.696Z,23.45
2019-05-01T00:18:30.567Z,24.67
2019-05-01T00:20:58.606Z,21.85
2019-05-01T00:23:27.528Z,19.80
2019-05-01T00:25:55.584Z,23.70
2019-05-01T00:28:23.634Z,20.55
2019-05-01T00:30:52.444Z,22.60
2019-05-01T00:33:20.537Z,24.27
2019-05-01T00:35:48.590Z,23.02
2019-05-01T00:38:16.642Z,20.92
2019-05-01T00:40:45.569Z,22.13
2019-05-01T00:43:14.439Z,20.20
2019-05-01T00:45:42.489Z,20.62
2019-05-01T00:48:11.420Z,24.80
2019-05-01T00:50:39.464Z,20.83
2019-05-01T00:53:07.560Z,21.60
2019-05-01T00:55:40.083Z,21.48
2019-05-01T01:01:22.566Z,18.83
2019-05-01T01:03:50.618Z,21.92
2019-05-01T01:06:18.669Z,20.35
2019-05-01T01:08:47.487Z,20.95
2019-05-01T01:11:25.459Z,19.87
2019-05-01T01:13:54.283Z,21.33
2019-05-01T01:16:22.306Z,20.05
2019-05-01T01:18:51.225Z,19.37
2019-05-01T01:21:19.282Z,18.42
2019-05-01T01:23:47.371Z,17.07
2019-05-01T01:26:15.417Z,18.75
2019-05-01T01:28:44.235Z,19.10
2019-05-01T01:31:12.276Z,24.05
2019-05-01T01:33:41.193Z,20.25
2019-05-01T01:36:09.264Z,19.37
2019-05-01T01:38:37.326Z,19.95
2019-05-01T01:41:06.229Z,20.50
2019-05-01T01:43:34.263Z,18.80
2019-05-01T01:46:03.535Z,19.20
2019-05-01T01:48:31.590Z,19.58
2019-05-01T01:50:59.616Z,18.43
2019-05-01T01:53:27.695Z,17.05
2019-05-01T01:55:55.777Z,16.27
2019-05-01T01:58:23.842Z,15.35
2019-05-01T02:01:11.354Z,14.17
2019-05-01T02:03:43.036Z,13.23
2019-05-01T02:06:11.084Z,14.70
2019-05-01T02:08:39.160Z,13.70
2019-05-01T02:11:07.326Z,12.37
2019-05-01T02:13:35.376Z,12.82
2019-05-01T02:16:04.396Z,12.40
2019-05-01T02:18:32.480Z,13.70
2019-05-01T02:21:00.532Z,12.57
2019-05-01T02:23:28.583Z,13.10
2019-05-01T02:25:57.512Z,15.38
2019-05-01T02:28:27.360Z,13.13
2019-05-01T02:31:01.051Z,13.27
2019-05-01T02:33:29.098Z,13.38
2019-05-01T02:35:57.160Z,12.75
2019-05-01T02:38:25.936Z,12.77
2019-05-01T02:40:54.016Z,13.52
2019-05-01T02:43:22.093Z,12.70
2019-05-01T02:45:50.148Z,12.27
2019-05-01T02:48:18.191Z,14.00
2019-05-01T02:50:47.118Z,13.50
2019-05-01T02:53:15.172Z,13.13
2019-05-01T02:55:46.593Z,14.18
2019-05-01T02:58:14.715Z,12.07
2019-05-01T03:00:42.759Z,15.00
2019-05-01T03:03:10.850Z,13.80
2019-05-01T03:05:38.923Z,13.45
2019-05-01T03:08:06.986Z,14.07
2019-05-01T03:10:35.823Z,15.23
2019-05-01T03:13:03.844Z,15.80
2019-05-01T03:15:31.914Z,13.65
2019-05-01T03:18:00.713Z,14.47
2019-05-01T03:20:32.425Z,12.95
2019-05-01T03:23:07.956Z,15.25
2019-05-01T03:25:36.083Z,14.50
2019-05-01T03:28:04.154Z,19.50
2019-05-01T03:30:32.195Z,13.98
2019-05-01T03:33:01.008Z,16.17
2019-05-01T03:35:29.088Z,13.40
2019-05-01T03:37:57.181Z,14.50
2019-05-01T03:40:25.242Z,13.85
2019-05-01T03:42:53.395Z,15.95
2019-05-01T03:45:21.570Z,13.18
2019-05-01T03:47:49.656Z,13.88
2019-05-01T03:50:18.364Z,15.57
2019-05-01T03:52:46.497Z,14.10
2019-05-01T03:55:14.611Z,13.60
2019-05-01T03:57:42.738Z,15.10
2019-05-01T04:00:11.600Z,14.40
2019-05-01T04:02:46.925Z,17.42
2019-05-01T04:05:14.969Z,15.93
2019-05-01T04:07:43.039Z,13.70
2019-05-01T04:10:11.067Z,15.68
2019-05-01T04:12:39.161Z,17.00
2019-05-01T04:15:07.223Z,14.73
2019-05-01T04:17:38.264Z,16.62
2019-05-01T04:20:06.318Z,14.77
2019-05-01T04:22:34.369Z,15.65
2019-05-01T04:25:03.172Z,15.23
2019-05-01T04:27:31.229Z,16.17
2019-05-01T04:29:59.972Z,16.52
2019-05-01T04:32:28.004Z,16.37
2019-05-01T04:35:01.749Z,14.55
2019-05-01T04:37:29.904Z,16.45
2019-05-01T04:39:57.934Z,17.20
2019-05-01T04:42:26.036Z,15.32
2019-05-01T04:44:54.077Z,16.15
2019-05-01T04:47:22.127Z,18.48
2019-05-01T04:49:50.972Z,17.00
2019-05-01T04:52:19.123Z,15.73
2019-05-01T04:54:47.180Z,16.25
2019-05-01T04:57:15.270Z,16.73
2019-05-01T04:59:43.499Z,17.23
2019-05-01T05:02:11.568Z,16.27
2019-05-01T05:04:39.687Z,15.40
2019-05-01T05:07:07.739Z,15.73
2019-05-01T05:09:36.737Z,14.35
2019-05-01T05:12:05.581Z,15.35
2019-05-01T05:14:33.591Z,15.27
2019-05-01T05:17:03.506Z,14.77
2019-05-01T05:19:31.591Z,14.60
2019-05-01T05:21:59.668Z,14.47
2019-05-01T05:24:27.836Z,15.85
2019-05-01T05:26:55.911Z,14.38
2019-05-01T05:29:23.959Z,15.45
2019-05-01T05:31:52.151Z,14.90
2019-05-01T05:34:20.344Z,15.20
2019-05-01T05:36:48.395Z,15.23
2019-05-01T05:39:17.884Z,15.88
2019-05-01T05:41:45.977Z,15.85
2019-05-01T05:44:14.462Z,18.83
2019-05-01T05:46:42.623Z,19.73
2019-05-01T05:49:10.704Z,21.80
2019-05-01T05:51:39.321Z,21.42
2019-05-01T05:54:23.041Z,22.92
2019-05-01T05:56:51.514Z,21.35
2019-05-01T05:59:22.406Z,18.25
2019-05-01T06:02:11.144Z,19.15
2019-05-01T06:04:59.084Z,18.75
2019-05-01T06:07:28.497Z,18.23
2019-05-01T06:09:57.127Z,19.73
2019-05-01T06:12:27.779Z,20.08
2019-05-01T06:14:56.757Z,22.55
2019-05-01T06:17:30.379Z,19.77
2019-05-01T06:20:04.314Z,19.15
2019-05-01T06:22:40.725Z,22.83
2019-05-01T06:25:21.511Z,20.33
2019-05-01T06:27:37.848Z,21.62
2019-05-01T06:30:06.656Z,22.90
2019-05-01T06:32:34.853Z,19.65
2019-05-01T06:35:04.483Z,19.95
2019-05-01T06:40:37.377Z,21.83
2019-05-01T06:43:07.100Z,19.62
2019-05-01T06:45:35.156Z,20.08
2019-05-01T06:48:03.206Z,22.00
2019-05-01T06:50:32.403Z,22.50
2019-05-01T06:53:04.689Z,22.23
2019-05-01T06:55:29.248Z,20.55
2019-05-01T06:57:57.305Z,20.12
2019-05-01T07:00:25.380Z,23.17
2019-05-01T07:02:53.467Z,22.00
2019-05-01T07:05:21.524Z,22.40
2019-05-01T07:07:53.244Z,20.48
2019-05-01T07:10:29.917Z,20.23
2019-05-01T07:12:45.817Z,25.15
2019-05-01T07:15:14.656Z,19.85
2019-05-01T07:17:43.801Z,21.27
2019-05-01T07:20:20.671Z,21.83
2019-05-01T07:22:49.588Z,19.62
2019-05-01T07:25:17.665Z,21.55
2019-05-01T07:27:45.712Z,22.25
2019-05-01T07:30:26.454Z,18.48
2019-05-01T07:32:54.560Z,18.00
2019-05-01T07:35:23.451Z,16.30
2019-05-01T07:37:51.691Z,16.58
2019-05-01T07:49:21.034Z,17.67
2019-05-01T07:51:49.906Z,16.20
2019-05-01T07:57:28.756Z,15.80
2019-05-01T07:59:58.151Z,17.95
2019-05-01T08:02:25.780Z,15.90
2019-05-01T08:04:52.940Z,16.40
2019-05-01T08:07:21.785Z,16.05
2019-05-01T08:09:50.281Z,14.85
2019-05-01T08:12:18.811Z,13.57
2019-05-01T08:14:47.768Z,14.77
2019-05-01T08:17:17.989Z,16.50
2019-05-01T08:19:43.644Z,16.25
2019-05-01T08:22:11.710Z,17.00
2019-05-01T08:24:39.799Z,16.62
2019-05-01T08:27:07.828Z,16.90
2019-05-01T08:29:42.001Z,15.20
2019-05-01T08:32:23.350Z,14.23
2019-05-01T08:34:51.396Z,16.48
2019-05-01T08:37:22.669Z,18.07
2019-05-01T08:39:47.483Z,16.55
2019-05-01T08:42:15.632Z,14.95
2019-05-01T08:44:53.574Z,18.45
2019-05-01T08:47:25.887Z,20.95
2019-05-01T08:50:02.129Z,14.87
2019-05-01T08:52:31.044Z,15.52
2019-05-01T08:54:59.114Z,17.75
2019-05-01T08:57:29.083Z,14.50
2019-05-01T08:59:55.618Z,15.23
2019-05-01T09:02:24.060Z,12.88
2019-05-01T09:05:02.156Z,10.97
2019-05-01T09:07:23.748Z,11.82
2019-05-01T09:09:48.228Z,14.82
2019-05-01T09:12:17.054Z,15.23
2019-05-01T09:14:45.265Z,10.82
2019-05-01T09:17:13.299Z,13.25
2019-05-01T09:19:41.354Z,16.50
2019-05-01T09:22:09.415Z,12.52
2019-05-01T09:24:38.231Z,13.60
2019-05-01T09:27:09.713Z,12.48
2019-05-01T09:29:39.682Z,11.70
2019-05-01T09:32:10.093Z,11.60
2019-05-01T09:34:36.646Z,9.20
2019-05-01T09:37:04.693Z,10.77
2019-05-01T09:39:33.498Z,13.35
2019-05-01T09:42:02.272Z,10.80
2019-05-01T09:44:31.073Z,11.93
2019-05-01T09:46:59.126Z,14.73
2019-05-01T09:49:28.030Z,16.30
2019-05-01T09:52:01.944Z,13.77
2019-05-01T09:54:33.363Z,13.10
2019-05-01T09:57:02.185Z,11.80
2019-05-01T09:59:30.234Z,12.57
2019-05-01T10:01:58.283Z,13.80
2019-05-01T10:04:30.186Z,13.15
2019-05-01T10:06:55.158Z,13.18
2019-05-01T10:09:23.255Z,16.20
2019-05-01T10:11:51.315Z,11.07
2019-05-01T10:14:19.381Z,11.93
2019-05-01T10:16:47.460Z,14.32
2019-05-01T10:19:15.510Z,14.13
2019-05-01T10:21:43.604Z,13.00
2019-05-01T10:24:11.682Z,14.02
2019-05-01T10:26:39.722Z,21.50
2019-05-01T10:29:09.319Z,12.52
2019-05-01T10:31:42.963Z,13.25
2019-05-01T10:34:13.856Z,13.35
2019-05-01T10:36:45.236Z,15.63
2019-05-01T10:39:16.040Z,15.20
2019-05-01T10:41:46.140Z,13.18
2019-05-01T10:44:10.209Z,15.18
2019-05-01T10:46:38.327Z,12.52
2019-05-01T10:49:06.411Z,12.65
2019-05-01T10:51:34.677Z,13.45
2019-05-01T10:54:02.730Z,13.43
2019-05-01T10:56:30.767Z,14.23
2019-05-01T10:58:58.807Z,13.65
2019-05-01T11:01:32.593Z,15.20
2019-05-01T11:04:00.661Z,11.95
2019-05-01T11:06:29.444Z,15.97
2019-05-01T11:08:58.335Z,12.70
2019-05-01T11:11:26.421Z,13.35
2019-05-01T11:13:54.471Z,14.77
2019-05-01T11:16:22.517Z,14.20
2019-05-01T11:18:51.347Z,12.57
2019-05-01T11:21:19.418Z,15.65
2019-05-01T11:23:47.479Z,11.40
2019-05-01T11:26:15.555Z,14.85
2019-05-01T11:28:44.331Z,13.50
2019-05-01T11:31:12.386Z,12.70
2019-05-01T11:33:46.955Z,14.45
2019-05-01T11:36:15.810Z,12.02
2019-05-01T11:38:43.855Z,12.63
2019-05-01T11:41:16.462Z,13.27
2019-05-01T11:43:44.530Z,14.77
2019-05-01T11:46:12.586Z,15.23
2019-05-01T11:48:44.250Z,12.48
2019-05-01T11:51:09.476Z,13.27
2019-05-01T11:53:37.531Z,14.40
2019-05-01T11:56:05.589Z,12.65
2019-05-01T11:58:33.679Z,12.27
2019-05-01T12:01:01.726Z,11.93
2019-05-01T12:03:30.542Z,12.13
2019-05-01T12:05:58.591Z,13.32
2019-05-01T12:08:26.672Z,11.60
2019-05-01T12:10:54.726Z,13.15
2019-05-01T12:13:23.547Z,15.85
2019-05-01T12:15:52.090Z,13.95
2019-05-01T12:18:20.934Z,14.98
2019-05-01T12:20:49.069Z,11.27
2019-05-01T12:23:17.106Z,11.07
2019-05-01T12:25:45.922Z,12.65
2019-05-01T12:28:13.972Z,12.10
2019-05-01T12:30:42.901Z,13.90
2019-05-01T12:33:10.942Z,11.27
2019-05-01T12:35:39.853Z,12.20
2019-05-01T12:38:08.635Z,11.97
2019-05-01T12:40:37.428Z,11.37
2019-05-01T12:43:05.472Z,12.65
2019-05-01T12:45:34.395Z,11.50
2019-05-01T12:48:02.431Z,12.20
2019-05-01T12:50:31.243Z,12.68
2019-05-01T12:53:00.243Z,11.90
2019-05-01T12:55:43.170Z,12.90
2019-05-01T12:58:11.228Z,12.93
2019-05-01T13:00:39.295Z,12.98
2019-05-01T13:03:07.339Z,13.85
2019-05-01T13:05:36.177Z,11.52
2019-05-01T13:08:04.222Z,11.38
2019-05-01T13:10:32.280Z,17.35
2019-05-01T13:13:01.096Z,11.57
2019-05-01T13:15:29.151Z,12.05
2019-05-01T13:17:57.194Z,14.77
2019-05-01T13:20:25.210Z,15.57
2019-05-01T13:22:53.359Z,14.32
2019-05-01T13:25:21.395Z,13.90
2019-05-01T13:27:51.280Z,12.82
2019-05-01T13:30:23.307Z,14.68
2019-05-01T13:32:51.364Z,20.35
2019-05-01T13:35:20.175Z,14.10
2019-05-01T13:37:48.240Z,12.27
2019-05-01T13:40:16.315Z,11.35
2019-05-01T13:42:45.102Z,11.40
2019-05-01T13:45:13.151Z,13.15
2019-05-01T13:47:42.066Z,13.23
2019-05-01T13:50:10.111Z,11.77
2019-05-01T13:52:38.203Z,10.17
2019-05-01T13:55:06.250Z,11.82
2019-05-01T13:57:35.160Z,12.88
2019-05-01T14:00:05.947Z,12.98
2019-05-01T14:02:34.167Z,10.93
2019-05-01T14:05:02.206Z,12.30
2019-05-01T14:07:31.132Z,12.13
2019-05-01T14:09:59.899Z,12.73
2019-05-01T14:12:27.999Z,11.83
2019-05-01T14:14:56.054Z,8.32
2019-05-01T14:17:24.114Z,10.27
2019-05-01T14:20:02.822Z,11.10
2019-05-01T14:22:48.651Z,10.33
2019-05-01T14:25:16.719Z,12.85
2019-05-01T14:27:44.765Z,12.00
2019-05-01T14:30:13.242Z,10.88
2019-05-01T14:32:42.158Z,11.02
2019-05-01T14:35:10.277Z,12.50
2019-05-01T14:37:38.344Z,12.80
2019-05-01T14:40:06.454Z,18.40
2019-05-01T14:42:34.534Z,12.48
2019-05-01T14:45:02.614Z,11.63
2019-05-01T14:47:30.667Z,13.15
2019-05-01T14:49:58.750Z,9.98
2019-05-01T14:52:26.802Z,11.12
2019-05-01T14:54:55.696Z,10.23
2019-05-01T14:57:24.484Z,12.13
2019-05-01T14:59:52.574Z,11.68
2019-05-01T15:02:21.617Z,9.27
2019-05-01T15:04:49.696Z,10.80
2019-05-01T15:07:17.751Z,10.80
2019-05-01T15:09:45.808Z,9.45
2019-05-01T15:12:14.671Z,8.95
2019-05-01T15:17:44.841Z,12.27
2019-05-01T15:20:14.122Z,10.80
2019-05-01T15:22:42.994Z,9.55
2019-05-01T15:25:16.938Z,8.60
2019-05-01T15:27:46.687Z,8.45
2019-05-01T15:30:20.208Z,10.27
2019-05-01T15:32:48.228Z,8.88
2019-05-01T15:35:16.270Z,8.38
2019-05-01T15:37:56.073Z,9.43
2019-05-01T15:40:13.198Z,8.98
2019-05-01T15:42:41.799Z,9.93
2019-05-01T15:45:10.691Z,10.30
2019-05-01T15:47:39.490Z,10.13
2019-05-01T15:50:07.518Z,10.67
2019-05-01T15:52:35.563Z,10.73
2019-05-01T15:55:03.712Z,7.47
2019-05-01T15:57:31.787Z,10.43
2019-05-01T15:59:59.856Z,8.43
2019-05-01T16:02:27.886Z,10.85
2019-05-01T16:04:55.944Z,9.98
2019-05-01T16:07:23.980Z,13.05
2019-05-01T16:09:51.995Z,9.20
2019-05-01T16:12:20.819Z,10.52
2019-05-01T16:14:48.867Z,9.85
2019-05-01T16:17:17.659Z,8.25
2019-05-01T16:19:46.565Z,9.00
2019-05-01T16:22:14.645Z,8.25
2019-05-01T16:24:42.716Z,9.23
2019-05-01T16:27:11.529Z,10.35
2019-05-01T16:29:40.286Z,8.97
2019-05-01T16:32:08.337Z,10.75
2019-05-01T16:34:37.138Z,9.48
2019-05-01T16:37:16.166Z,11.18
2019-05-01T16:40:17.160Z,9.50
2019-05-01T16:42:45.197Z,12.07
2019-05-01T16:45:13.219Z,9.27
2019-05-01T16:47:41.331Z,8.15
2019-05-01T16:50:09.379Z,8.25
2019-05-01T16:52:38.175Z,9.18
2019-05-01T16:55:06.226Z,7.80
2019-05-01T16:57:35.027Z,8.88
2019-05-01T17:00:03.080Z,11.85
2019-05-01T17:05:31.220Z,11.52
2019-05-01T17:08:03.761Z,10.98
2019-05-01T17:10:31.778Z,8.17
2019-05-01T17:12:59.813Z,9.93
2019-05-01T17:15:28.308Z,11.38
2019-05-01T17:17:56.363Z,9.20
2019-05-01T17:20:25.152Z,10.07
2019-05-01T17:22:53.226Z,8.55
2019-05-01T17:25:21.286Z,10.75
2019-05-01T17:27:50.097Z,9.60
2019-05-01T17:30:18.142Z,10.15
2019-05-01T17:32:46.183Z,10.70
2019-05-01T17:35:15.002Z,10.60
2019-05-01T17:37:43.057Z,10.00
2019-05-01T17:40:11.866Z,8.85
2019-05-01T17:42:39.898Z,8.90
2019-05-01T17:45:07.994Z,8.67
2019-05-01T17:47:36.991Z,6.07
2019-05-01T17:50:05.063Z,9.27
2019-05-01T17:52:33.114Z,10.35
2019-05-01T17:55:02.138Z,10.25
2019-05-01T17:57:33.479Z,8.35
2019-05-01T17:59:59.118Z,9.40
2019-05-01T18:02:32.810Z,7.03
2019-05-01T18:05:06.661Z,7.40
2019-05-01T18:07:35.030Z,8.75
2019-05-01T18:10:02.942Z,7.90
2019-05-01T18:12:31.000Z,9.85
2019-05-01T18:15:00.579Z,12.13
2019-05-01T18:17:28.628Z,10.82
2019-05-01T18:19:56.659Z,8.23
2019-05-01T18:22:26.982Z,9.25
2019-05-01T18:24:58.409Z,10.40
2019-05-01T18:27:26.758Z,15.30
2019-05-01T18:29:54.797Z,12.30
2019-05-01T18:32:24.797Z,11.52
2019-05-01T18:34:52.833Z,12.40
2019-05-01T18:37:24.601Z,10.68
2019-05-01T18:39:53.406Z,8.85
2019-05-01T18:42:21.444Z,9.13
2019-05-01T18:44:49.463Z,8.67
2019-05-01T18:47:17.529Z,10.52
2019-05-01T18:49:45.567Z,10.70
2019-05-01T18:52:14.379Z,9.57
2019-05-01T18:54:42.446Z,10.02
2019-05-01T18:57:10.603Z,9.27
2019-05-01T18:59:39.410Z,10.80
2019-05-01T19:02:07.485Z,10.82
2019-05-01T19:04:35.554Z,12.40
2019-05-01T19:07:03.614Z,8.05
2019-05-01T19:09:31.671Z,11.80
2019-05-01T19:12:00.497Z,10.60
2019-05-01T19:14:29.157Z,11.85
2019-05-01T19:16:56.611Z,10.43
2019-05-01T19:19:24.664Z,9.60
2019-05-01T19:21:53.464Z,10.13
2019-05-01T19:24:21.510Z,15.68
2019-05-01T19:26:50.332Z,10.35
2019-05-01T19:29:18.414Z,11.80
2019-05-01T19:31:47.291Z,10.18
2019-05-01T19:34:15.339Z,9.45
2019-05-01T19:36:45.132Z,13.10
2019-05-01T19:39:12.869Z,21.15
2019-05-01T19:41:43.626Z,22.90
2019-05-01T19:44:07.877Z,19.37
2019-05-01T19:46:37.354Z,36.00
2019-05-01T19:49:05.441Z,35.92
2019-05-01T19:51:33.483Z,48.35
2019-05-01T19:54:01.670Z,50.35
2019-05-01T19:56:30.485Z,47.23
2019-05-01T19:58:58.528Z,45.92
2019-05-01T20:01:26.605Z,26.90
2019-05-01T20:03:54.772Z,15.00
2019-05-01T20:06:23.671Z,18.80
2019-05-01T20:08:51.712Z,17.87
2019-05-01T20:11:19.798Z,14.05
2019-05-01T20:13:47.854Z,12.40
2019-05-01T20:16:15.879Z,11.17
2019-05-01T20:18:43.926Z,12.80
2019-05-01T20:21:11.963Z,14.07
2019-05-01T20:23:40.783Z,11.25
2019-05-01T20:26:08.830Z,11.77
2019-05-01T20:28:37.477Z,10.30
2019-05-01T20:31:05.759Z,12.13
2019-05-01T20:33:38.912Z,11.30
2019-05-01T20:36:05.106Z,10.43
2019-05-01T20:38:29.906Z,14.32
2019-05-01T20:40:58.790Z,28.60
2019-05-01T20:43:26.875Z,32.92
2019-05-01T20:45:54.940Z,19.58
2019-05-01T20:48:23.841Z,10.88
2019-05-01T20:50:51.796Z,12.20
2019-05-01T20:53:19.842Z,14.27
2019-05-01T20:55:48.663Z,10.55
2019-05-01T20:58:17.230Z,11.98
2019-05-01T21:00:48.093Z,10.60
2019-05-01T21:03:14.280Z,14.20
2019-05-01T21:05:45.087Z,13.93
2019-05-01T21:08:34.309Z,10.73
2019-05-01T21:11:00.774Z,11.23
2019-05-01T21:13:28.810Z,12.55
2019-05-01T21:16:01.856Z,12.77
2019-05-01T21:18:27.618Z,14.63
2019-05-01T21:20:54.129Z,13.38
2019-05-01T21:23:23.314Z,14.18
2019-05-01T21:25:50.691Z,12.17
2019-05-01T21:28:18.751Z,12.27
2019-05-01T21:30:47.608Z,14.45
2019-05-01T21:33:15.591Z,12.10
2019-05-01T21:35:44.579Z,13.65
2019-05-01T21:38:12.451Z,11.27
2019-05-01T21:40:43.568Z,14.68
2019-05-01T21:43:09.438Z,13.62
2019-05-01T21:45:37.497Z,13.07
2019-05-01T21:48:06.311Z,13.95
2019-05-01T21:50:34.363Z,13.25
2019-05-01T21:53:06.557Z,12.48
2019-05-01T21:55:32.068Z,11.00
2019-05-01T21:57:59.401Z,12.85
2019-05-01T22:00:28.265Z,13.77
2019-05-01T22:02:56.258Z,12.18
2019-05-01T22:05:25.060Z,12.68
2019-05-01T22:07:53.127Z,13.65
2019-05-01T22:10:21.527Z,11.12
2019-05-01T22:12:50.866Z,12.40
2019-05-01T22:15:18.835Z,12.77
2019-05-01T22:17:49.474Z,13.73
2019-05-01T22:20:17.515Z,15.38
2019-05-01T22:22:49.001Z,11.73
2019-05-01T22:25:18.682Z,14.70
2019-05-01T22:27:46.743Z,12.10
2019-05-01T22:30:15.089Z,12.77
2019-05-01T22:32:44.934Z,13.73
2019-05-01T22:35:12.979Z,13.55
2019-05-01T22:37:41.050Z,12.93
2019-05-01T22:40:09.998Z,16.98
2019-05-01T22:42:38.081Z,11.10
2019-05-01T22:45:06.119Z,12.60
2019-05-01T22:47:34.226Z,11.30
2019-05-01T22:50:02.277Z,15.48
2019-05-01T22:52:31.096Z,11.00
2019-05-01T22:54:59.149Z,13.13
2019-05-01T22:57:27.224Z,12.50
2019-05-01T22:59:55.294Z,13.77
2019-05-01T23:02:28.326Z,12.23
2019-05-01T23:04:53.253Z,15.93
2019-05-01T23:07:21.007Z,13.32
2019-05-01T23:09:49.809Z,15.02
2019-05-01T23:12:18.713Z,16.52
2019-05-01T23:14:47.486Z,16.07
2019-05-01T23:17:18.874Z,15.45
2019-05-01T23:19:47.023Z,15.25
2019-05-01T23:22:15.103Z,13.00
2019-05-01T23:24:43.143Z,15.40
2019-05-01T23:27:12.055Z,14.13
2019-05-01T23:29:40.124Z,20.67
2019-05-01T23:32:08.186Z,14.82
2019-05-01T23:34:36.271Z,16.08
2019-05-01T23:37:05.048Z,16.42
2019-05-01T23:39:39.725Z,16.20
2019-05-01T23:42:01.198Z,14.70
2019-05-01T23:44:29.263Z,12.80
2019-05-01T23:46:57.310Z,15.32
2019-05-01T23:49:26.123Z,16.12
2019-05-01T23:51:54.175Z,16.35
2019-05-01T23:54:22.193Z,16.33
2019-05-01T23:56:50.332Z,14.90
2019-05-01T23:59:18.411Z,14.68
